createdAt,value
2023-05-01T00:02:04.053Z,4.93
2023-05-01T00:04:31.471Z,4.83
2023-05-01T00:07:00.220Z,4.53
2023-05-01T00:09:28.358Z,4.40
2023-05-01T00:11:55.818Z,4.50
2023-05-01T00:14:23.191Z,4.90
2023-05-01T00:16:50.736Z,5.07
2023-05-01T00:19:18.995Z,4.50
2023-05-01T00:21:47.772Z,4.73
2023-05-01T00:24:16.971Z,4.80
2023-05-01T00:26:44.993Z,4.80
2023-05-01T00:29:12.510Z,5.40
2023-05-01T00:31:41.566Z,5.37
2023-05-01T00:34:09.089Z,5.00
2023-05-01T00:36:36.531Z,5.70
2023-05-01T00:39:04.111Z,5.17
2023-05-01T00:41:32.871Z,5.27
2023-05-01T00:44:00.386Z,5.93
2023-05-01T00:46:29.934Z,6.00
2023-05-01T00:48:58.058Z,5.40
2023-05-01T00:51:27.057Z,5.80
2023-05-01T00:53:55.764Z,6.20
2023-05-01T00:56:23.309Z,5.73
2023-05-01T00:58:53.276Z,5.47
2023-05-01T01:01:20.886Z,5.50
2023-05-01T01:03:48.403Z,6.03
2023-05-01T01:06:20.479Z,5.93
2023-05-01T01:08:53.445Z,6.10
2023-05-01T01:11:25.277Z,7.00
2023-05-01T01:13:57.914Z,6.97
2023-05-01T01:16:32.826Z,7.00
2023-05-01T01:19:06.805Z,6.93
2023-05-01T01:21:37.605Z,6.57
2023-05-01T01:24:23.464Z,6.80
2023-05-01T01:27:14.384Z,7.10
2023-05-01T01:29:49.999Z,7.10
2023-05-01T01:32:35.761Z,7.27
2023-05-01T01:35:06.020Z,7.27
2023-05-01T01:37:39.546Z,7.00
2023-05-01T01:40:08.742Z,7.13
2023-05-01T01:42:38.607Z,7.20
2023-05-01T01:45:10.802Z,6.90
2023-05-01T01:47:40.632Z,7.00
2023-05-01T01:50:11.047Z,6.93
2023-05-01T01:52:39.979Z,7.40
2023-05-01T01:55:09.532Z,7.03
2023-05-01T01:57:37.652Z,7.20
2023-05-01T02:00:08.880Z,7.07
2023-05-01T02:02:40.920Z,7.57
2023-05-01T02:05:12.373Z,8.00
2023-05-01T02:07:40.435Z,7.83
2023-05-01T02:10:09.472Z,7.57
2023-05-01T02:12:38.363Z,7.50
2023-05-01T02:15:07.588Z,7.73
2023-05-01T02:17:36.338Z,7.83
2023-05-01T02:20:05.443Z,7.73
2023-05-01T02:22:34.451Z,7.57
2023-05-01T02:25:02.183Z,7.23
2023-05-01T02:27:31.801Z,7.37
2023-05-01T02:29:59.312Z,7.53
2023-05-01T02:32:28.444Z,7.90
2023-05-01T02:34:57.318Z,7.40
2023-05-01T02:37:24.973Z,7.33
2023-05-01T02:39:54.827Z,8.90
2023-05-01T02:42:24.394Z,9.40
2023-05-01T02:44:55.209Z,9.17
2023-05-01T02:47:24.417Z,9.27
2023-05-01T02:49:52.462Z,7.63
2023-05-01T02:52:20.651Z,7.93
2023-05-01T02:54:50.753Z,7.77
2023-05-01T02:57:20.389Z,9.40
2023-05-01T02:59:47.895Z,8.23
2023-05-01T03:02:15.742Z,8.97
2023-05-01T03:04:43.665Z,9.13
2023-05-01T03:07:11.136Z,9.93
2023-05-01T03:09:38.559Z,9.43
2023-05-01T03:12:06.285Z,9.63
2023-05-01T03:14:35.040Z,9.40
2023-05-01T03:17:02.554Z,9.70
2023-05-01T03:19:30.498Z,8.93
2023-05-01T03:21:58.000Z,8.67
2023-05-01T03:24:25.434Z,8.73
2023-05-01T03:26:52.873Z,8.50
2023-05-01T03:29:20.280Z,8.67
2023-05-01T03:31:49.011Z,8.93
2023-05-01T03:34:16.574Z,8.87
2023-05-01T03:36:44.316Z,9.03
2023-05-01T03:39:12.503Z,9.10
2023-05-01T03:42:02.611Z,7.90
2023-05-01T03:44:34.940Z,8.63
2023-05-01T03:47:04.717Z,8.90
2023-05-01T03:49:32.900Z,10.00
2023-05-01T03:52:00.339Z,8.97
2023-05-01T03:54:27.940Z,8.77
2023-05-01T03:57:01.860Z,8.03
2023-05-01T03:59:29.686Z,7.83
2023-05-01T04:01:57.122Z,9.60
2023-05-01T04:04:29.567Z,8.03
2023-05-01T04:06:58.468Z,8.27
2023-05-01T04:09:26.034Z,8.73
2023-05-01T04:11:53.478Z,8.37
2023-05-01T04:14:20.894Z,8.70
2023-05-01T04:16:48.599Z,8.60
2023-05-01T04:19:16.004Z,8.97
2023-05-01T04:21:47.086Z,8.73
2023-05-01T04:24:14.582Z,8.20
2023-05-01T04:26:42.850Z,8.57
2023-05-01T04:29:10.653Z,8.27
2023-05-01T04:31:38.120Z,8.20
2023-05-01T04:34:05.562Z,8.33
2023-05-01T04:36:33.036Z,9.57
2023-05-01T04:39:02.166Z,8.40
2023-05-01T04:41:30.894Z,8.33
2023-05-01T04:43:58.378Z,9.00
2023-05-01T04:46:26.076Z,9.47
2023-05-01T04:48:54.144Z,8.23
2023-05-01T04:51:21.566Z,9.40
2023-05-01T04:53:49.191Z,8.97
2023-05-01T04:56:23.053Z,10.13
2023-05-01T04:58:54.031Z,9.90
2023-05-01T05:01:23.833Z,9.70
2023-05-01T05:03:52.214Z,9.43
2023-05-01T05:06:20.266Z,9.43
2023-05-01T05:08:47.780Z,9.37
2023-05-01T05:11:15.850Z,10.13
2023-05-01T05:14:06.316Z,10.00
2023-05-01T05:16:34.621Z,10.30
2023-05-01T05:19:02.056Z,9.43
2023-05-01T05:21:32.594Z,8.40
2023-05-01T05:24:02.163Z,9.10
2023-05-01T05:26:29.657Z,9.90
2023-05-01T05:29:01.808Z,10.90
2023-05-01T05:31:30.640Z,10.33
2023-05-01T05:33:58.564Z,9.20
2023-05-01T05:36:27.507Z,8.97
2023-05-01T05:38:54.997Z,9.27
2023-05-01T05:41:22.770Z,9.17
2023-05-01T05:43:54.129Z,9.60
2023-05-01T05:46:21.661Z,9.10
2023-05-01T05:48:50.574Z,8.90
2023-05-01T05:51:19.291Z,9.60
2023-05-01T05:53:46.806Z,9.10
2023-05-01T05:56:14.199Z,9.67
2023-05-01T05:58:41.647Z,8.90
2023-05-01T06:01:09.533Z,9.13
2023-05-01T06:03:38.365Z,8.60
2023-05-01T06:06:07.750Z,9.47
2023-05-01T06:08:37.354Z,8.37
2023-05-01T06:11:07.149Z,10.03
2023-05-01T06:13:37.662Z,9.20
2023-05-01T06:16:07.298Z,9.60
2023-05-01T06:18:34.884Z,9.20
2023-05-01T06:21:02.491Z,9.10
2023-05-01T06:23:31.857Z,9.37
2023-05-01T06:26:19.232Z,8.77
2023-05-01T06:28:46.664Z,9.67
2023-05-01T06:31:14.157Z,8.80
2023-05-01T06:33:47.314Z,8.77
2023-05-01T06:36:24.738Z,9.10
2023-05-01T06:38:53.468Z,9.13
2023-05-01T06:41:22.060Z,8.93
2023-05-01T06:43:49.564Z,8.90
2023-05-01T06:46:17.679Z,8.03
2023-05-01T06:48:45.150Z,8.30
2023-05-01T06:51:15.951Z,8.63
2023-05-01T06:53:43.314Z,7.37
2023-05-01T06:56:12.056Z,8.27
2023-05-01T06:58:39.466Z,8.83
2023-05-01T07:01:06.982Z,7.93
2023-05-01T07:03:34.500Z,8.60
2023-05-01T07:06:01.950Z,8.00
2023-05-01T07:08:29.406Z,8.00
2023-05-01T07:10:56.817Z,7.80
2023-05-01T07:13:26.334Z,7.80
2023-05-01T07:15:54.684Z,7.87
2023-05-01T07:18:22.416Z,8.40
2023-05-01T07:20:50.445Z,7.93
2023-05-01T07:23:17.817Z,9.07
2023-05-01T07:25:45.901Z,10.07
2023-05-01T07:28:13.264Z,8.37
2023-05-01T07:30:41.988Z,9.97
2023-05-01T07:33:09.374Z,10.13
2023-05-01T07:35:36.976Z,9.20
2023-05-01T07:38:04.417Z,9.30
2023-05-01T07:40:33.523Z,9.27
2023-05-01T07:43:00.980Z,8.63
2023-05-01T07:45:28.380Z,9.10
2023-05-01T07:47:57.968Z,9.47
2023-05-01T07:50:25.793Z,9.30
2023-05-01T07:52:53.730Z,8.73
2023-05-01T07:55:22.616Z,8.10
2023-05-01T07:57:50.091Z,8.13
2023-05-01T08:00:17.937Z,8.93
2023-05-01T08:02:45.478Z,9.73
2023-05-01T08:05:14.268Z,9.00
2023-05-01T08:07:41.608Z,8.03
2023-05-01T08:10:09.431Z,9.10
2023-05-01T08:12:36.905Z,8.37
2023-05-01T08:15:05.165Z,7.93
2023-05-01T08:17:32.572Z,8.53
2023-05-01T08:20:01.056Z,7.83
2023-05-01T08:22:29.748Z,6.47
2023-05-01T08:24:57.138Z,6.30
2023-05-01T08:27:24.594Z,6.43
2023-05-01T08:29:52.012Z,6.60
2023-05-01T08:32:19.609Z,5.20
2023-05-01T08:34:47.044Z,5.67
2023-05-01T08:37:14.605Z,5.10
2023-05-01T08:39:43.349Z,5.27
2023-05-01T08:42:10.810Z,4.83
2023-05-01T08:44:39.186Z,5.10
2023-05-01T08:47:12.572Z,5.27
2023-05-01T08:49:41.445Z,4.43
2023-05-01T08:52:09.612Z,4.57
2023-05-01T08:54:38.910Z,4.93
2023-05-01T08:57:10.531Z,4.20
2023-05-01T08:59:38.867Z,4.60
2023-05-01T09:02:08.055Z,4.83
2023-05-01T09:04:37.043Z,4.40
2023-05-01T09:07:04.804Z,4.70
2023-05-01T09:09:32.810Z,4.47
2023-05-01T09:12:01.653Z,4.80
2023-05-01T09:14:32.106Z,4.80
2023-05-01T09:16:59.629Z,4.40
2023-05-01T09:19:27.330Z,4.50
2023-05-01T09:21:54.786Z,4.20
2023-05-01T09:24:23.841Z,4.87
2023-05-01T09:26:51.374Z,4.97
2023-05-01T09:29:33.695Z,3.87
2023-05-01T09:32:13.503Z,4.50
2023-05-01T09:34:41.134Z,5.33
2023-05-01T09:37:08.561Z,4.87
2023-05-01T09:39:35.944Z,4.43
2023-05-01T09:42:03.440Z,4.37
2023-05-01T09:44:31.021Z,4.77
2023-05-01T09:46:58.425Z,5.40
2023-05-01T09:49:40.715Z,5.20
2023-05-01T09:52:15.671Z,4.43
2023-05-01T09:54:43.604Z,4.47
2023-05-01T09:57:11.076Z,4.37
2023-05-01T09:59:38.818Z,4.80
2023-05-01T10:02:06.485Z,4.70
2023-05-01T10:04:34.382Z,5.23
2023-05-01T10:07:12.839Z,4.17
2023-05-01T10:09:42.181Z,4.57
2023-05-01T10:12:09.601Z,5.43
2023-05-01T10:14:49.994Z,4.40
2023-05-01T10:17:20.938Z,4.50
2023-05-01T10:19:48.532Z,4.60
2023-05-01T10:22:16.364Z,4.23
2023-05-01T10:24:46.243Z,5.20
2023-05-01T10:27:14.171Z,4.60
2023-05-01T10:29:42.029Z,4.67
2023-05-01T10:32:10.496Z,4.23
2023-05-01T10:34:39.339Z,4.10
2023-05-01T10:37:10.588Z,4.50
2023-05-01T10:39:38.182Z,4.83
2023-05-01T10:42:10.691Z,4.20
2023-05-01T10:44:38.197Z,4.23
2023-05-01T10:47:24.638Z,3.80
2023-05-01T10:50:07.948Z,3.90
2023-05-01T10:52:50.277Z,4.13
2023-05-01T10:55:33.514Z,3.77
2023-05-01T10:58:02.655Z,3.73
2023-05-01T11:00:30.154Z,3.63
2023-05-01T11:03:12.453Z,4.10
2023-05-01T11:06:01.054Z,4.13
2023-05-01T11:08:31.894Z,3.33
2023-05-01T11:10:59.405Z,3.60
2023-05-01T11:13:41.676Z,3.53
2023-05-01T11:16:28.065Z,3.40
2023-05-01T11:18:57.302Z,4.07
2023-05-01T11:21:29.939Z,3.93
2023-05-01T11:23:57.293Z,3.90
2023-05-01T11:26:24.769Z,3.40
2023-05-01T11:28:54.993Z,3.77
2023-05-01T11:31:22.530Z,3.67
2023-05-01T11:33:49.944Z,3.50
2023-05-01T11:36:18.782Z,3.50
2023-05-01T11:38:52.465Z,3.40
2023-05-01T11:41:21.694Z,3.93
2023-05-01T11:43:50.137Z,3.90
2023-05-01T11:46:24.044Z,4.10
2023-05-01T11:48:51.562Z,3.50
2023-05-01T11:51:20.421Z,3.27
2023-05-01T11:54:00.652Z,3.60
2023-05-01T11:56:28.641Z,3.30
2023-05-01T11:58:57.384Z,3.30
2023-05-01T12:01:34.049Z,3.57
2023-05-01T12:04:01.732Z,2.90
2023-05-01T12:06:40.467Z,2.83
2023-05-01T12:09:08.681Z,2.27
2023-05-01T12:11:36.264Z,2.40
2023-05-01T12:14:04.066Z,3.13
2023-05-01T12:16:32.246Z,3.17
2023-05-01T12:18:59.761Z,2.83
2023-05-01T12:21:28.078Z,2.63
2023-05-01T12:23:58.172Z,4.13
2023-05-01T12:26:26.093Z,4.63
2023-05-01T12:28:57.223Z,2.83
2023-05-01T12:31:25.127Z,2.80
2023-05-01T12:33:56.514Z,3.50
2023-05-01T12:36:25.692Z,4.33
2023-05-01T12:38:58.402Z,3.50
2023-05-01T12:41:36.420Z,4.63
2023-05-01T12:44:03.863Z,3.83
2023-05-01T12:46:31.637Z,4.33
2023-05-01T12:48:59.100Z,3.97
2023-05-01T12:51:27.483Z,4.30
2023-05-01T12:53:57.349Z,4.20
2023-05-01T12:56:26.815Z,2.97
2023-05-01T12:58:55.226Z,2.60
2023-05-01T13:01:26.176Z,2.67
2023-05-01T13:03:54.541Z,3.07
2023-05-01T13:06:22.846Z,2.60
2023-05-01T13:08:50.541Z,2.33
2023-05-01T13:11:18.285Z,2.40
2023-05-01T13:13:48.022Z,2.40
2023-05-01T13:16:16.291Z,2.27
2023-05-01T13:18:44.361Z,3.10
2023-05-01T13:21:13.806Z,1.80
2023-05-01T13:23:41.383Z,1.67
2023-05-01T13:26:09.349Z,1.93
2023-05-01T13:28:38.425Z,1.60
2023-05-01T13:31:13.850Z,2.00
2023-05-01T13:33:42.073Z,1.90
2023-05-01T13:36:21.690Z,1.60
2023-05-01T13:38:54.374Z,1.80
2023-05-01T13:41:22.633Z,1.90
2023-05-01T13:43:50.348Z,1.60
2023-05-01T13:46:21.564Z,2.23
2023-05-01T13:48:49.376Z,2.10
2023-05-01T13:51:27.744Z,1.80
2023-05-01T13:53:57.310Z,1.70
2023-05-01T13:56:24.651Z,1.70
2023-05-01T13:58:52.156Z,1.67
2023-05-01T14:01:22.085Z,2.30
2023-05-01T14:03:50.234Z,1.70
2023-05-01T14:06:19.196Z,1.70
2023-05-01T14:08:47.689Z,1.53
2023-05-01T14:11:15.281Z,1.80
2023-05-01T14:13:43.563Z,1.47
2023-05-01T14:16:11.960Z,1.60
2023-05-01T14:18:46.031Z,1.53
2023-05-01T14:21:14.212Z,1.87
2023-05-01T14:23:42.876Z,1.70
2023-05-01T14:26:11.158Z,1.60
2023-05-01T14:28:42.302Z,1.73
2023-05-01T14:31:09.713Z,1.70
2023-05-01T14:33:42.256Z,1.40
2023-05-01T14:36:11.034Z,1.30
2023-05-01T14:38:40.503Z,1.70
2023-05-01T14:41:10.032Z,1.40
2023-05-01T14:43:41.796Z,1.30
2023-05-01T14:46:09.242Z,1.37
2023-05-01T14:48:37.344Z,1.33
2023-05-01T14:51:06.412Z,1.73
2023-05-01T14:53:35.256Z,1.40
2023-05-01T14:56:02.672Z,2.00
2023-05-01T14:58:30.119Z,1.37
2023-05-01T15:00:58.050Z,1.33
2023-05-01T15:03:25.522Z,2.50
2023-05-01T15:05:53.153Z,1.40
2023-05-01T15:08:20.640Z,1.70
2023-05-01T15:10:49.489Z,1.50
2023-05-01T15:13:16.824Z,1.60
2023-05-01T15:15:44.227Z,1.67
2023-05-01T15:18:11.894Z,1.47
2023-05-01T15:20:39.274Z,1.53
2023-05-01T15:23:06.653Z,1.40
2023-05-01T15:25:34.032Z,1.40
2023-05-01T15:28:03.388Z,1.80
2023-05-01T15:30:30.846Z,1.40
2023-05-01T15:32:58.349Z,1.70
2023-05-01T15:35:26.152Z,1.47
2023-05-01T15:37:55.200Z,1.30
2023-05-01T15:40:22.549Z,1.50
2023-05-01T15:42:50.362Z,1.63
2023-05-01T15:45:19.853Z,1.50
2023-05-01T15:47:47.367Z,1.50
2023-05-01T15:50:14.977Z,1.73
2023-05-01T15:52:42.328Z,1.63
2023-05-01T15:55:09.882Z,1.57
2023-05-01T15:57:37.282Z,1.70
2023-05-01T16:00:05.128Z,1.80
2023-05-01T16:02:34.518Z,1.57
2023-05-01T16:05:02.037Z,1.63
2023-05-01T16:07:29.718Z,1.73
2023-05-01T16:09:57.838Z,1.80
2023-05-01T16:12:25.670Z,1.90
2023-05-01T16:14:53.092Z,1.67
2023-05-01T16:17:20.877Z,2.07
2023-05-01T16:19:49.904Z,1.80
2023-05-01T16:22:17.861Z,1.90
2023-05-01T16:24:45.663Z,1.87
2023-05-01T16:27:13.352Z,1.80
2023-05-01T16:29:40.818Z,1.80
2023-05-01T16:32:11.158Z,1.70
2023-05-01T16:34:39.457Z,1.90
2023-05-01T16:37:08.349Z,1.60
2023-05-01T16:39:36.939Z,1.70
2023-05-01T16:42:04.318Z,3.23
2023-05-01T16:44:31.667Z,1.63
2023-05-01T16:46:59.408Z,1.40
2023-05-01T16:49:28.174Z,1.97
2023-05-01T16:51:57.118Z,1.70
2023-05-01T16:54:31.765Z,1.70
2023-05-01T16:56:59.215Z,1.50
2023-05-01T16:59:27.886Z,1.97
2023-05-01T17:01:55.366Z,2.13
2023-05-01T17:04:23.083Z,1.80
2023-05-01T17:06:50.557Z,1.70
2023-05-01T17:09:18.036Z,1.50
2023-05-01T17:11:57.413Z,1.60
2023-05-01T17:14:25.178Z,1.57
2023-05-01T17:16:53.816Z,1.70
2023-05-01T17:19:21.330Z,1.70
2023-05-01T17:21:48.688Z,1.60
2023-05-01T17:24:16.272Z,2.33
2023-05-01T17:26:43.650Z,2.33
2023-05-01T17:29:12.368Z,3.20
2023-05-01T17:31:39.739Z,2.30
2023-05-01T17:34:07.235Z,1.80
2023-05-01T17:36:34.661Z,2.43
2023-05-01T17:39:02.198Z,2.60
2023-05-01T17:41:29.772Z,2.17
2023-05-01T17:43:57.227Z,2.27
2023-05-01T17:46:26.605Z,2.30
2023-05-01T17:48:54.441Z,2.27
2023-05-01T17:51:21.838Z,2.50
2023-05-01T17:53:49.273Z,1.93
2023-05-01T17:56:17.632Z,1.97
2023-05-01T17:58:45.016Z,2.60
2023-05-01T18:01:12.488Z,2.30
2023-05-01T18:03:41.315Z,2.77
2023-05-01T18:06:08.809Z,2.50
2023-05-01T18:08:36.216Z,3.50
2023-05-01T18:11:03.716Z,3.67
2023-05-01T18:13:33.375Z,3.47
2023-05-01T18:16:00.843Z,3.67
2023-05-01T18:18:28.355Z,2.97
2023-05-01T18:20:57.214Z,3.07
2023-05-01T18:23:25.165Z,2.80
2023-05-01T18:25:52.607Z,2.50
2023-05-01T18:28:20.062Z,2.70
2023-05-01T18:30:47.473Z,2.80
2023-05-01T18:33:14.890Z,2.63
2023-05-01T18:35:43.112Z,2.53
2023-05-01T18:38:12.077Z,3.00
2023-05-01T18:40:39.422Z,2.80
2023-05-01T18:43:06.825Z,2.60
2023-05-01T18:45:34.225Z,2.40
2023-05-01T18:48:01.744Z,2.57
2023-05-01T18:50:29.173Z,2.23
2023-05-01T18:52:56.627Z,2.80
2023-05-01T18:55:26.679Z,2.90
2023-05-01T18:57:54.111Z,8.20
2023-05-01T19:00:21.703Z,3.07
2023-05-01T19:02:51.679Z,3.30
2023-05-01T19:05:19.836Z,2.63
2023-05-01T19:07:47.302Z,2.70
2023-05-01T19:10:14.937Z,3.40
2023-05-01T19:12:43.724Z,3.53
2023-05-01T19:15:11.337Z,3.03
2023-05-01T19:17:39.022Z,3.30
2023-05-01T19:20:07.130Z,3.10
2023-05-01T19:22:34.566Z,2.70
2023-05-01T19:25:02.395Z,3.10
2023-05-01T19:27:29.782Z,2.50
2023-05-01T19:30:00.713Z,6.87
2023-05-01T19:32:29.132Z,3.00
2023-05-01T19:34:56.754Z,3.40
2023-05-01T19:37:24.239Z,3.17
2023-05-01T19:39:51.705Z,2.50
2023-05-01T19:42:19.106Z,2.43
2023-05-01T19:44:46.511Z,2.50
2023-05-01T19:47:15.212Z,2.60
2023-05-01T19:49:43.648Z,2.90
2023-05-01T19:52:11.332Z,2.80
2023-05-01T19:54:38.791Z,2.53
2023-05-01T19:57:06.230Z,2.70
2023-05-01T19:59:36.153Z,2.97
2023-05-01T20:02:04.150Z,2.63
2023-05-01T20:04:32.951Z,7.23
2023-05-01T20:07:02.222Z,2.70
2023-05-01T20:09:29.608Z,2.87
2023-05-01T20:11:56.975Z,2.97
2023-05-01T20:14:24.415Z,2.70
2023-05-01T20:16:52.884Z,2.87
2023-05-01T20:19:20.397Z,2.53
2023-05-01T20:21:49.348Z,2.53
2023-05-01T20:24:16.961Z,2.70
2023-05-01T20:26:44.329Z,3.00
2023-05-01T20:29:11.735Z,2.77
2023-05-01T20:31:39.256Z,2.97
2023-05-01T20:34:07.046Z,2.90
2023-05-01T20:36:34.484Z,2.60
2023-05-01T20:39:03.218Z,2.77
2023-05-01T20:41:30.814Z,2.63
2023-05-01T20:43:58.200Z,2.40
2023-05-01T20:46:25.695Z,2.70
2023-05-01T20:48:54.103Z,3.93
2023-05-01T20:51:21.846Z,2.93
2023-05-01T20:53:49.225Z,3.20
2023-05-01T20:56:17.958Z,3.10
2023-05-01T20:58:45.329Z,3.77
2023-05-01T21:01:12.818Z,3.00
2023-05-01T21:03:40.542Z,3.00
2023-05-01T21:06:08.170Z,2.80
2023-05-01T21:08:35.560Z,3.03
2023-05-01T21:11:03.329Z,3.23
2023-05-01T21:13:32.268Z,3.27
2023-05-01T21:15:59.889Z,3.40
2023-05-01T21:18:28.377Z,3.37
2023-05-01T21:20:55.744Z,3.10
2023-05-01T21:23:26.400Z,4.40
2023-05-01T21:25:54.490Z,3.53
2023-05-01T21:28:21.880Z,3.00
2023-05-01T21:30:50.727Z,3.00
2023-05-01T21:33:18.565Z,3.10
2023-05-01T21:35:46.595Z,2.93
2023-05-01T21:38:14.001Z,3.20
2023-05-01T21:40:42.604Z,3.10
2023-05-01T21:43:10.770Z,2.90
2023-05-01T21:45:40.447Z,2.83
2023-05-01T21:48:09.603Z,3.03
2023-05-01T21:50:38.449Z,3.27
2023-05-01T21:53:07.192Z,2.93
2023-05-01T21:55:34.883Z,3.60
2023-05-01T21:58:02.797Z,3.50
2023-05-01T22:00:31.678Z,3.37
2023-05-01T22:02:59.148Z,3.37
2023-05-01T22:05:30.869Z,3.63
2023-05-01T22:07:58.452Z,3.23
2023-05-01T22:10:25.908Z,3.40
2023-05-01T22:12:53.497Z,4.00
2023-05-01T22:15:20.887Z,4.00
2023-05-01T22:17:48.298Z,3.70
2023-05-01T22:20:15.800Z,3.77
2023-05-01T22:22:44.504Z,3.60
2023-05-01T22:25:13.033Z,3.73
2023-05-01T22:27:40.531Z,3.87
2023-05-01T22:30:08.241Z,3.70
2023-05-01T22:32:35.858Z,3.87
2023-05-01T22:35:03.806Z,3.70
2023-05-01T22:37:31.329Z,3.60
2023-05-01T22:40:00.541Z,3.17
2023-05-01T22:42:28.429Z,3.67
2023-05-01T22:44:55.789Z,3.23
2023-05-01T22:47:23.295Z,3.10
2023-05-01T22:49:50.742Z,3.10
2023-05-01T22:52:18.145Z,3.00
2023-05-01T22:54:45.533Z,3.10
2023-05-01T22:57:14.376Z,3.30
2023-05-01T22:59:41.755Z,3.07
2023-05-01T23:02:09.335Z,3.30
2023-05-01T23:04:36.923Z,3.27
2023-05-01T23:07:04.349Z,3.50
2023-05-01T23:09:32.768Z,3.47
2023-05-01T23:12:00.139Z,3.73
2023-05-01T23:14:29.201Z,4.07
2023-05-01T23:16:56.628Z,3.80
2023-05-01T23:19:25.049Z,3.73
2023-05-01T23:22:04.943Z,3.93
2023-05-01T23:24:37.779Z,3.33
2023-05-01T23:27:05.140Z,3.43
2023-05-01T23:29:33.867Z,3.47
2023-05-01T23:32:01.338Z,3.60
2023-05-01T23:34:29.091Z,4.70
2023-05-01T23:36:56.459Z,3.50
2023-05-01T23:39:23.837Z,3.50
2023-05-01T23:41:51.389Z,3.43
2023-05-01T23:44:18.776Z,3.60
2023-05-01T23:46:47.590Z,3.30
2023-05-01T23:49:15.104Z,3.30
2023-05-01T23:51:42.476Z,3.27
2023-05-01T23:54:10.368Z,3.90
2023-05-01T23:56:37.770Z,3.67
2023-05-01T23:59:05.181Z,3.83
